Bei Facebook empfehlenBei Twitter postenGoogle plusPinterest

Das Wetter im Erzgebirge am 05.03.2015

Wetter und Klima am 05.03.2015 Holzhau im Erzgebirge (630m ü.NN)
Letzte gemessene Temperatur und Uhrzeit der Messung23:45:00 Uhr0.40 °C
Temperatur (Maximum / Höchstwert) und Uhrzeit der Messung13:00:00 Uhr3.30 °C
Temperatur (Minimum / Tiefstwert) und Uhrzeit der Messung00:30:00-0.90 °C
Errechneter Absolutwert der Temperaturschwankungen zwischen Tmin und Tmax des Tages4.20 K
Errechnete Tagesmitteltemperatur0.46458 °C
Gesamt - Niederschlag des Tages (in flüssiger Form)2.07 Liter / m²
Luftdruck (Maximum / Höchstwert) und Zeitpunkt der Messung23:15:00 Uhr1029.70 hPa
Luftdruck (Minimum / Tiefstwert) und Zeitpunkt der Messung00:15:00 Uhr1021.10 hPa
Errechneter Absolutwert der Luftdruckschwankungen des Tages8.60 hPa
Höchste gemessene Windgeschwindigkeit und Uhrzeit der Messung20:45:00 Uhr5.40 km/h
Errechnete Windhäufigkeit in Relation zu den Messwerten des Tages1.04167 %
Niedrigste Windkühle (Windchill) und Zeitpunkt der Messung20:45:00 Uhr-1.50 °C
Taupunkt (Maximum / Höchstwert) und Uhrzeit der Messung13:00:00 Uhr-0.20 °C
Taupunkt (Minimum / Tiefstwert) und Uhrzeit der Messung00:30:00-3.20 °C
Anzahl der automatisch eingelesenen Messwerte 96

Detaillierte Wetter- und Klima- Messwerte für den 05.03.2015 in Holzhau im Erzgebirge (630m ü.NN)
ZeitTemperaturLuftdruckRel. LuftfeuchteWindWindrichtungWindchillTaupunktNiederschlag l/m²
23:45:000.40 °C1029.60 hPa91.00 %-0.90 °C2.07
23:30:000.30 °C1029.50 hPa91.00 %-1.00 °C2.07
23:15:000.20 °C1029.70 hPa91.00 %-1.10 °C2.07
23:00:000.10 °C1029.70 hPa91.00 %-1.20 °C2.07
22:45:000.10 °C1029.70 hPa91.00 %-1.20 °C2.07
22:30:000.20 °C1029.60 hPa91.00 %-1.10 °C2.07
22:15:000.20 °C1029.60 hPa91.00 %-1.10 °C2.07
22:00:000.20 °C1029.70 hPa91.00 %-1.10 °C2.07
21:45:000.10 °C1029.50 hPa91.00 %-1.20 °C2.07
21:30:000.10 °C1029.60 hPa90.00 %-1.30 °C2.07
21:15:00-0.10 °C1029.70 hPa90.00 %-1.70 °C2.07
21:00:000.10 °C1029.50 hPa90.00 %-1.30 °C2.07
20:45:000.20 °C1029.50 hPa90.00 %5.40 km/hWSW-1.50 °C-1.20 °C2.07
20:30:000.30 °C1029.30 hPa90.00 %-1.10 °C2.07
20:15:000.30 °C1029.20 hPa89.00 %-1.30 °C2.07
20:00:000.30 °C1029.20 hPa89.00 %-1.30 °C2.07
19:45:000.40 °C1029.20 hPa89.00 %-1.20 °C2.07
19:30:000.30 °C1029.20 hPa89.00 %-1.30 °C2.07
19:15:000.30 °C1028.90 hPa88.00 %-1.40 °C2.07
19:00:000.30 °C1029.00 hPa88.00 %-1.40 °C2.07
18:45:000.20 °C1028.60 hPa87.00 %-1.70 °C2.07
18:30:000.30 °C1028.60 hPa86.00 %-1.80 °C2.07
18:15:000.30 °C1028.60 hPa84.00 %-2.10 °C2.07
18:00:000.40 °C1028.50 hPa83.00 %-2.10 °C2.07
17:45:000.40 °C1028.30 hPa82.00 %-2.30 °C2.07
17:30:000.60 °C1028.20 hPa80.00 %-2.40 °C2.07
17:15:001.00 °C1028.20 hPa79.00 %-2.20 °C2.07
17:00:001.50 °C1028.10 hPa78.00 %-1.90 °C2.07
16:45:002.10 °C1027.80 hPa77.00 %-1.50 °C2.07
16:30:002.10 °C1028.10 hPa77.00 %-1.50 °C2.07
16:15:002.40 °C1027.80 hPa78.00 %-1.00 °C1.55
16:00:002.30 °C1027.80 hPa78.00 %-1.10 °C1.55
15:45:002.30 °C1027.80 hPa77.00 %-1.30 °C1.55
15:30:002.70 °C1027.80 hPa77.00 %-0.90 °C1.55
15:15:002.00 °C1027.80 hPa78.00 %-1.40 °C1.55
15:00:001.90 °C1027.70 hPa77.00 %-1.70 °C1.03
14:45:002.10 °C1027.50 hPa77.00 %-1.50 °C1.03
14:30:002.40 °C1027.60 hPa77.00 %-1.20 °C1.03
14:15:002.40 °C1027.80 hPa77.00 %-1.20 °C1.03
14:00:002.80 °C1027.50 hPa78.00 %-0.60 °C1.03
13:45:002.80 °C1027.70 hPa78.00 %-0.60 °C1.03
13:30:002.70 °C1027.70 hPa78.00 %-0.70 °C0.51
13:15:003.20 °C1027.70 hPa78.00 %-0.30 °C0.51
13:00:003.30 °C1027.50 hPa78.00 %-0.20 °C0.51
12:45:002.80 °C1027.70 hPa80.00 %-0.30 °C 
12:30:002.50 °C1027.90 hPa81.00 %-0.40 °C 
12:15:001.90 °C1027.90 hPa83.00 %-0.70 °C 
12:00:001.90 °C1027.70 hPa84.00 %-0.50 °C 
11:45:001.60 °C1027.70 hPa86.00 %-0.50 °C 
11:30:000.90 °C1027.70 hPa88.00 %-0.90 °C 
11:15:000.40 °C1027.40 hPa89.00 %-1.20 °C 
11:00:000.40 °C1027.10 hPa90.00 %-1.00 °C 
10:45:000.70 °C1026.80 hPa91.00 %-0.60 °C 
10:30:000.30 °C1026.80 hPa91.00 %-1.00 °C 
10:15:000.20 °C1026.40 hPa91.00 %-1.10 °C 
10:00:000.30 °C1026.30 hPa91.00 %-1.00 °C 
09:45:000.40 °C1026.20 hPa92.00 %-0.70 °C 
09:30:000.40 °C1025.90 hPa92.00 %-0.70 °C 
09:15:000.10 °C1025.70 hPa92.00 %-1.00 °C 
09:00:000.10 °C1025.50 hPa92.00 %-1.00 °C 
08:45:000.10 °C1025.50 hPa92.00 %-1.00 °C 
08:30:00-0.20 °C1025.10 hPa92.00 %-1.50 °C 
08:15:00-0.40 °C1024.90 hPa92.00 %-1.70 °C 
08:00:00-0.50 °C1024.50 hPa92.00 %-1.80 °C 
07:45:00-0.60 °C1024.30 hPa92.00 %-1.90 °C 
07:30:00-0.70 °C1024.20 hPa92.00 %-2.00 °C 
07:15:00-0.70 °C1024.20 hPa92.00 %-2.00 °C 
07:00:00-0.70 °C1023.90 hPa92.00 %-2.00 °C 
06:45:00-0.70 °C1023.70 hPa92.00 %-2.00 °C 
06:30:00-0.70 °C1023.50 hPa92.00 %-2.00 °C 
06:15:00-0.70 °C1023.40 hPa92.00 %-2.00 °C 
06:00:00-0.70 °C1023.20 hPa92.00 %-2.00 °C 
05:45:00-0.70 °C1023.00 hPa91.00 %-2.10 °C 
05:30:00-0.70 °C1022.90 hPa91.00 %-2.10 °C 
05:15:00-0.70 °C1022.70 hPa91.00 %-2.10 °C 
05:00:00-0.70 °C1022.60 hPa91.00 %-2.10 °C 
04:45:00-0.70 °C1022.50 hPa90.00 %-2.30 °C 
04:30:00-0.70 °C1022.50 hPa90.00 %-2.30 °C 
04:15:00-0.70 °C1022.40 hPa90.00 %-2.30 °C 
04:00:00-0.70 °C1022.50 hPa90.00 %-2.30 °C 
03:45:00-0.70 °C1022.40 hPa89.00 %-2.50 °C 
03:30:00-0.40 °C1022.20 hPa88.00 %-2.30 °C 
03:15:00-0.20 °C1022.00 hPa87.00 %-2.30 °C 
03:00:00-0.20 °C1022.10 hPa87.00 %-2.30 °C 
02:45:00-0.20 °C1022.00 hPa87.00 %-2.30 °C 
02:30:00-0.20 °C1022.00 hPa87.00 %-2.30 °C 
02:15:00-0.20 °C1022.00 hPa87.00 %-2.30 °C 
02:00:00-0.30 °C1021.90 hPa87.00 %-2.40 °C 
01:45:00-0.40 °C1021.80 hPa86.00 %-2.70 °C 
01:30:00-0.20 °C1021.60 hPa86.00 %-2.50 °C 
01:15:00-0.20 °C1021.40 hPa86.00 %-2.50 °C 
01:00:00-0.40 °C1021.50 hPa86.00 %-2.70 °C 
00:45:00-0.60 °C1021.30 hPa86.00 %-2.90 °C 
00:30:00-0.90 °C1021.20 hPa86.00 %-3.20 °C 
00:15:00-0.90 °C1021.10 hPa86.00 %-3.20 °C 
00:00:00-0.70 °C1021.30 hPa86.00 %-3.00 °C 

Permanenter Link zu dieser Seite: Wetter im Erzgebirge am 05.03.2015
Performance-Info: Die Erstellung der Seite / Statistik(en) / Tabelle(n) erforderte 5 Datenbankserver-Abfrage(n) und dauerte 100 Millisekunden. (Dieser Messwert ist von der Gesamt-Auslastung des Servers abhängig.)
Erzgebirge - Wetter | Erzgebirge - Wetter (Mobilgeräte) | Komplette Klimadatenbank